sensor_id;sensor_type;location;lat;lon;timestamp;temperature;humidity
2657;DHT22;1338;48.176;11.792;2022-11-20T00:01:09;5.00;1.00
2657;DHT22;1338;48.176;11.792;2022-11-20T00:03:38;4.90;1.00
2657;DHT22;1338;48.176;11.792;2022-11-20T00:06:07;4.90;1.00
2657;DHT22;1338;48.176;11.792;2022-11-20T00:08:36;4.90;1.00
2657;DHT22;1338;48.176;11.792;2022-11-20T00:11:07;5.00;1.00
2657;DHT22;1338;48.176;11.792;2022-11-20T00:13:41;5.00;1.00
2657;DHT22;1338;48.176;11.792;2022-11-20T00:16:11;5.00;1.00
2657;DHT22;1338;48.176;11.792;2022-11-20T00:18:40;4.90;1.00
2657;DHT22;1338;48.176;11.792;2022-11-20T00:21:12;5.00;1.00
2657;DHT22;1338;48.176;11.792;2022-11-20T00:23:41;5.00;1.00
2657;DHT22;1338;48.176;11.792;2022-11-20T00:26:12;5.00;1.00
2657;DHT22;1338;48.176;11.792;2022-11-20T00:28:41;5.00;1.00
2657;DHT22;1338;48.176;11.792;2022-11-20T00:31:11;5.10;1.00
2657;DHT22;1338;48.176;11.792;2022-11-20T00:33:40;5.10;1.00
2657;DHT22;1338;48.176;11.792;2022-11-20T00:36:10;5.10;1.00
2657;DHT22;1338;48.176;11.792;2022-11-20T00:38:38;5.10;1.00
2657;DHT22;1338;48.176;11.792;2022-11-20T00:41:08;5.10;1.00
2657;DHT22;1338;48.176;11.792;2022-11-20T00:43:38;5.10;1.00
2657;DHT22;1338;48.176;11.792;2022-11-20T00:46:07;5.30;1.00
2657;DHT22;1338;48.176;11.792;2022-11-20T00:48:36;5.20;1.00
2657;DHT22;1338;48.176;11.792;2022-11-20T00:51:04;5.10;1.00
2657;DHT22;1338;48.176;11.792;2022-11-20T00:53:32;5.10;1.00
2657;DHT22;1338;48.176;11.792;2022-11-20T00:56:02;5.00;1.00
2657;DHT22;1338;48.176;11.792;2022-11-20T00:58:33;5.10;1.00
2657;DHT22;1338;48.176;11.792;2022-11-20T01:01:04;5.10;1.00
2657;DHT22;1338;48.176;11.792;2022-11-20T01:03:33;5.10;1.00
2657;DHT22;1338;48.176;11.792;2022-11-20T01:06:01;5.10;1.00
2657;DHT22;1338;48.176;11.792;2022-11-20T01:08:30;5.10;1.00
2657;DHT22;1338;48.176;11.792;2022-11-20T01:11:00;4.90;17.50
2657;DHT22;1338;48.176;11.792;2022-11-20T01:13:29;4.90;5.30
2657;DHT22;1338;48.176;11.792;2022-11-20T01:16:09;4.80;99.90
2657;DHT22;1338;48.176;11.792;2022-11-20T01:18:39;4.80;99.90
2657;DHT22;1338;48.176;11.792;2022-11-20T01:21:09;4.80;99.90
2657;DHT22;1338;48.176;11.792;2022-11-20T01:23:39;4.80;99.90
2657;DHT22;1338;48.176;11.792;2022-11-20T01:26:08;4.80;99.90
2657;DHT22;1338;48.176;11.792;2022-11-20T01:28:37;4.80;99.90
2657;DHT22;1338;48.176;11.792;2022-11-20T01:31:18;4.90;99.90
2657;DHT22;1338;48.176;11.792;2022-11-20T01:33:48;4.80;99.90
2657;DHT22;1338;48.176;11.792;2022-11-20T01:36:18;4.80;99.90
2657;DHT22;1338;48.176;11.792;2022-11-20T01:38:47;4.80;99.90
2657;DHT22;1338;48.176;11.792;2022-11-20T01:41:15;4.80;99.90
2657;DHT22;1338;48.176;11.792;2022-11-20T01:43:58;4.80;99.90
2657;DHT22;1338;48.176;11.792;2022-11-20T01:46:27;4.80;99.90
2657;DHT22;1338;48.176;11.792;2022-11-20T01:48:58;4.80;99.90
2657;DHT22;1338;48.176;11.792;2022-11-20T01:51:29;4.80;99.90
2657;DHT22;1338;48.176;11.792;2022-11-20T01:54:02;4.80;99.90
2657;DHT22;1338;48.176;11.792;2022-11-20T01:56:34;4.90;41.60
2657;DHT22;1338;48.176;11.792;2022-11-20T01:59:05;4.90;32.50
2657;DHT22;1338;48.176;11.792;2022-11-20T02:01:36;4.90;32.10
2657;DHT22;1338;48.176;11.792;2022-11-20T02:04:07;4.90;34.00
2657;DHT22;1338;48.176;11.792;2022-11-20T02:06:40;5.00;1.00
2657;DHT22;1338;48.176;11.792;2022-11-20T02:09:08;5.00;1.00
2657;DHT22;1338;48.176;11.792;2022-11-20T02:11:37;4.90;24.10
2657;DHT22;1338;48.176;11.792;2022-11-20T02:14:05;4.90;23.40
2657;DHT22;1338;48.176;11.792;2022-11-20T02:16:44;4.90;23.00
2657;DHT22;1338;48.176;11.792;2022-11-20T02:19:19;4.90;8.00
2657;DHT22;1338;48.176;11.792;2022-11-20T02:21:56;4.90;1.00
2657;DHT22;1338;48.176;11.792;2022-11-20T02:24:29;4.90;1.00
2657;DHT22;1338;48.176;11.792;2022-11-20T02:26:59;4.90;36.50
2657;DHT22;1338;48.176;11.792;2022-11-20T02:29:33;4.90;29.50
2657;DHT22;1338;48.176;11.792;2022-11-20T02:32:03;4.90;1.00
2657;DHT22;1338;48.176;11.792;2022-11-20T02:34:32;4.90;1.00
2657;DHT22;1338;48.176;11.792;2022-11-20T02:37:00;4.90;20.90
2657;DHT22;1338;48.176;11.792;2022-11-20T02:39:30;4.90;66.20
2657;DHT22;1338;48.176;11.792;2022-11-20T02:42:01;4.80;41.80
2657;DHT22;1338;48.176;11.792;2022-11-20T02:44:29;4.80;55.70
2657;DHT22;1338;48.176;11.792;2022-11-20T02:46:58;4.90;70.50
2657;DHT22;1338;48.176;11.792;2022-11-20T02:49:26;4.90;30.80
2657;DHT22;1338;48.176;11.792;2022-11-20T02:51:54;4.80;61.10
2657;DHT22;1338;48.176;11.792;2022-11-20T02:54:22;4.80;19.50
2657;DHT22;1338;48.176;11.792;2022-11-20T02:56:52;4.80;28.70
2657;DHT22;1338;48.176;11.792;2022-11-20T02:59:20;4.80;53.90
2657;DHT22;1338;48.176;11.792;2022-11-20T03:01:49;4.90;1.00
2657;DHT22;1338;48.176;11.792;2022-11-20T03:04:17;4.90;1.00
2657;DHT22;1338;48.176;11.792;2022-11-20T03:06:45;4.90;1.00
2657;DHT22;1338;48.176;11.792;2022-11-20T03:09:13;5.00;1.00
2657;DHT22;1338;48.176;11.792;2022-11-20T03:11:41;5.00;1.00
2657;DHT22;1338;48.176;11.792;2022-11-20T03:14:10;5.00;1.00
2657;DHT22;1338;48.176;11.792;2022-11-20T03:16:38;5.00;1.00
2657;DHT22;1338;48.176;11.792;2022-11-20T03:19:07;5.00;1.00
2657;DHT22;1338;48.176;11.792;2022-11-20T03:21:35;5.10;1.00
2657;DHT22;1338;48.176;11.792;2022-11-20T03:24:04;5.10;1.00
2657;DHT22;1338;48.176;11.792;2022-11-20T03:26:32;5.00;1.00
2657;DHT22;1338;48.176;11.792;2022-11-20T03:29:03;5.10;1.00
2657;DHT22;1338;48.176;11.792;2022-11-20T03:31:35;5.10;1.00
2657;DHT22;1338;48.176;11.792;2022-11-20T03:34:04;5.20;1.00
2657;DHT22;1338;48.176;11.792;2022-11-20T03:36:33;5.10;1.00
2657;DHT22;1338;48.176;11.792;2022-11-20T03:39:01;5.00;1.00
2657;DHT22;1338;48.176;11.792;2022-11-20T03:41:31;5.10;1.00
2657;DHT22;1338;48.176;11.792;2022-11-20T03:44:01;5.10;1.00
2657;DHT22;1338;48.176;11.792;2022-11-20T03:46:30;5.00;1.00
2657;DHT22;1338;48.176;11.792;2022-11-20T03:49:00;5.00;1.00
2657;DHT22;1338;48.176;11.792;2022-11-20T03:51:29;5.00;1.00
2657;DHT22;1338;48.176;11.792;2022-11-20T03:54:00;5.00;1.00
2657;DHT22;1338;48.176;11.792;2022-11-20T03:56:30;5.10;1.00
2657;DHT22;1338;48.176;11.792;2022-11-20T03:58:59;4.90;1.00
2657;DHT22;1338;48.176;11.792;2022-11-20T04:01:29;4.90;1.00
2657;DHT22;1338;48.176;11.792;2022-11-20T04:03:58;4.90;1.00
2657;DHT22;1338;48.176;11.792;2022-11-20T04:06:30;4.90;1.00
2657;DHT22;1338;48.176;11.792;2022-11-20T04:08:58;5.00;1.00
2657;DHT22;1338;48.176;11.792;2022-11-20T04:11:28;4.90;1.00
2657;DHT22;1338;48.176;11.792;2022-11-20T04:13:58;5.00;1.00
2657;DHT22;1338;48.176;11.792;2022-11-20T04:16:29;5.00;1.00
2657;DHT22;1338;48.176;11.792;2022-11-20T04:19:00;5.00;1.00
2657;DHT22;1338;48.176;11.792;2022-11-20T04:21:30;5.00;1.00
2657;DHT22;1338;48.176;11.792;2022-11-20T04:23:58;5.10;1.00
2657;DHT22;1338;48.176;11.792;2022-11-20T04:26:27;5.10;1.00
2657;DHT22;1338;48.176;11.792;2022-11-20T04:28:57;5.00;1.00
2657;DHT22;1338;48.176;11.792;2022-11-20T04:31:27;5.10;1.00
2657;DHT22;1338;48.176;11.792;2022-11-20T04:33:55;5.10;1.00
2657;DHT22;1338;48.176;11.792;2022-11-20T04:36:27;5.00;1.00
2657;DHT22;1338;48.176;11.792;2022-11-20T04:38:59;4.90;1.00
2657;DHT22;1338;48.176;11.792;2022-11-20T04:41:29;5.00;1.00
2657;DHT22;1338;48.176;11.792;2022-11-20T04:43:58;5.00;1.00
2657;DHT22;1338;48.176;11.792;2022-11-20T04:46:31;5.10;1.00
2657;DHT22;1338;48.176;11.792;2022-11-20T04:48:59;5.00;1.00
2657;DHT22;1338;48.176;11.792;2022-11-20T04:51:27;5.00;1.00
2657;DHT22;1338;48.176;11.792;2022-11-20T04:53:57;5.00;1.00
2657;DHT22;1338;48.176;11.792;2022-11-20T04:56:25;5.10;1.00
2657;DHT22;1338;48.176;11.792;2022-11-20T04:58:53;4.90;1.00
2657;DHT22;1338;48.176;11.792;2022-11-20T05:01:23;4.90;1.00
2657;DHT22;1338;48.176;11.792;2022-11-20T05:03:51;4.90;1.00
2657;DHT22;1338;48.176;11.792;2022-11-20T05:06:21;5.00;1.00
2657;DHT22;1338;48.176;11.792;2022-11-20T05:08:49;4.90;1.00
2657;DHT22;1338;48.176;11.792;2022-11-20T05:11:20;4.90;1.00
2657;DHT22;1338;48.176;11.792;2022-11-20T05:13:48;4.90;1.00
2657;DHT22;1338;48.176;11.792;2022-11-20T05:16:18;4.90;1.00
2657;DHT22;1338;48.176;11.792;2022-11-20T05:18:47;4.80;1.00
2657;DHT22;1338;48.176;11.792;2022-11-20T05:21:16;4.80;1.00
2657;DHT22;1338;48.176;11.792;2022-11-20T05:23:45;4.90;1.00
2657;DHT22;1338;48.176;11.792;2022-11-20T05:26:15;4.80;1.00
2657;DHT22;1338;48.176;11.792;2022-11-20T05:28:45;5.00;1.00
2657;DHT22;1338;48.176;11.792;2022-11-20T05:31:15;4.90;1.00
2657;DHT22;1338;48.176;11.792;2022-11-20T05:33:52;4.90;1.00
2657;DHT22;1338;48.176;11.792;2022-11-20T05:36:20;4.80;1.00
2657;DHT22;1338;48.176;11.792;2022-11-20T05:38:48;4.90;1.00
2657;DHT22;1338;48.176;11.792;2022-11-20T05:41:19;4.90;1.00
2657;DHT22;1338;48.176;11.792;2022-11-20T05:43:49;4.80;1.00
2657;DHT22;1338;48.176;11.792;2022-11-20T05:46:19;4.80;1.00
2657;DHT22;1338;48.176;11.792;2022-11-20T05:48:55;4.80;1.00
2657;DHT22;1338;48.176;11.792;2022-11-20T05:51:24;4.90;1.00
2657;DHT22;1338;48.176;11.792;2022-11-20T05:53:52;4.80;1.00
2657;DHT22;1338;48.176;11.792;2022-11-20T05:56:21;4.80;1.00
2657;DHT22;1338;48.176;11.792;2022-11-20T05:58:51;4.80;1.00
2657;DHT22;1338;48.176;11.792;2022-11-20T06:01:20;4.80;1.00
2657;DHT22;1338;48.176;11.792;2022-11-20T06:03:49;4.80;1.00
2657;DHT22;1338;48.176;11.792;2022-11-20T06:06:18;4.80;1.00
2657;DHT22;1338;48.176;11.792;2022-11-20T06:08:47;4.80;1.00
2657;DHT22;1338;48.176;11.792;2022-11-20T06:11:16;4.80;1.00
2657;DHT22;1338;48.176;11.792;2022-11-20T06:13:44;4.80;1.00
2657;DHT22;1338;48.176;11.792;2022-11-20T06:16:16;4.80;1.00
2657;DHT22;1338;48.176;11.792;2022-11-20T06:18:44;4.80;1.00
2657;DHT22;1338;48.176;11.792;2022-11-20T06:21:14;4.80;1.00
2657;DHT22;1338;48.176;11.792;2022-11-20T06:23:43;4.70;1.00
2657;DHT22;1338;48.176;11.792;2022-11-20T06:26:13;4.80;1.00
2657;DHT22;1338;48.176;11.792;2022-11-20T06:28:42;4.70;1.00
2657;DHT22;1338;48.176;11.792;2022-11-20T06:31:11;4.80;1.00
2657;DHT22;1338;48.176;11.792;2022-11-20T06:33:42;4.80;1.00
2657;DHT22;1338;48.176;11.792;2022-11-20T06:36:11;4.60;1.00
2657;DHT22;1338;48.176;11.792;2022-11-20T06:38:40;4.60;1.00
2657;DHT22;1338;48.176;11.792;2022-11-20T06:41:11;4.70;1.00
2657;DHT22;1338;48.176;11.792;2022-11-20T06:43:40;4.50;1.00
2657;DHT22;1338;48.176;11.792;2022-11-20T06:46:09;4.50;1.00
2657;DHT22;1338;48.176;11.792;2022-11-20T06:48:38;4.30;1.00
2657;DHT22;1338;48.176;11.792;2022-11-20T06:51:08;4.50;1.00
2657;DHT22;1338;48.176;11.792;2022-11-20T06:53:36;4.40;1.00
2657;DHT22;1338;48.176;11.792;2022-11-20T06:56:06;4.30;1.00
2657;DHT22;1338;48.176;11.792;2022-11-20T06:58:35;4.40;1.00
2657;DHT22;1338;48.176;11.792;2022-11-20T07:01:05;4.50;1.00
2657;DHT22;1338;48.176;11.792;2022-11-20T07:03:34;4.50;1.00
2657;DHT22;1338;48.176;11.792;2022-11-20T07:06:03;4.60;1.00
2657;DHT22;1338;48.176;11.792;2022-11-20T07:08:33;4.80;1.00
2657;DHT22;1338;48.176;11.792;2022-11-20T07:11:04;4.70;1.00
2657;DHT22;1338;48.176;11.792;2022-11-20T07:13:33;4.80;1.00
2657;DHT22;1338;48.176;11.792;2022-11-20T07:16:01;4.80;1.00
2657;DHT22;1338;48.176;11.792;2022-11-20T07:18:30;4.80;1.00
2657;DHT22;1338;48.176;11.792;2022-11-20T07:21:00;4.90;1.00
2657;DHT22;1338;48.176;11.792;2022-11-20T07:23:28;4.80;1.00
2657;DHT22;1338;48.176;11.792;2022-11-20T07:25:58;4.90;1.00
2657;DHT22;1338;48.176;11.792;2022-11-20T07:28:26;5.00;1.00
2657;DHT22;1338;48.176;11.792;2022-11-20T07:30:54;4.90;1.00
2657;DHT22;1338;48.176;11.792;2022-11-20T07:33:22;4.90;1.00
2657;DHT22;1338;48.176;11.792;2022-11-20T07:35:50;4.90;1.00
2657;DHT22;1338;48.176;11.792;2022-11-20T07:38:19;4.90;1.00
2657;DHT22;1338;48.176;11.792;2022-11-20T07:40:47;5.00;1.00
2657;DHT22;1338;48.176;11.792;2022-11-20T07:43:17;5.10;1.00
2657;DHT22;1338;48.176;11.792;2022-11-20T07:45:45;5.00;1.00
2657;DHT22;1338;48.176;11.792;2022-11-20T07:48:13;5.10;1.00
2657;DHT22;1338;48.176;11.792;2022-11-20T07:50:41;5.10;1.00
2657;DHT22;1338;48.176;11.792;2022-11-20T07:53:09;5.10;1.00
2657;DHT22;1338;48.176;11.792;2022-11-20T07:55:39;5.10;1.00
2657;DHT22;1338;48.176;11.792;2022-11-20T07:58:07;5.20;1.00
2657;DHT22;1338;48.176;11.792;2022-11-20T08:00:36;5.20;1.00
2657;DHT22;1338;48.176;11.792;2022-11-20T08:03:05;5.20;1.00
2657;DHT22;1338;48.176;11.792;2022-11-20T08:05:33;5.20;1.00
2657;DHT22;1338;48.176;11.792;2022-11-20T08:08:02;5.30;1.00
2657;DHT22;1338;48.176;11.792;2022-11-20T08:10:30;5.40;1.00
2657;DHT22;1338;48.176;11.792;2022-11-20T08:12:58;5.40;1.00
2657;DHT22;1338;48.176;11.792;2022-11-20T08:15:48;5.40;1.00
2657;DHT22;1338;48.176;11.792;2022-11-20T08:18:18;5.40;1.00
2657;DHT22;1338;48.176;11.792;2022-11-20T08:21:04;5.30;1.00
2657;DHT22;1338;48.176;11.792;2022-11-20T08:23:33;5.40;1.00
2657;DHT22;1338;48.176;11.792;2022-11-20T08:26:01;5.40;1.00
2657;DHT22;1338;48.176;11.792;2022-11-20T08:28:29;5.50;1.00
2657;DHT22;1338;48.176;11.792;2022-11-20T08:31:02;5.40;1.00
2657;DHT22;1338;48.176;11.792;2022-11-20T08:33:31;5.40;1.00
2657;DHT22;1338;48.176;11.792;2022-11-20T08:36:00;5.50;1.00
2657;DHT22;1338;48.176;11.792;2022-11-20T08:38:29;5.50;1.00
2657;DHT22;1338;48.176;11.792;2022-11-20T08:40:57;5.50;1.00
2657;DHT22;1338;48.176;11.792;2022-11-20T08:43:43;5.60;1.00
2657;DHT22;1338;48.176;11.792;2022-11-20T08:46:14;5.60;1.00
2657;DHT22;1338;48.176;11.792;2022-11-20T08:48:43;5.60;1.00
2657;DHT22;1338;48.176;11.792;2022-11-20T08:51:12;5.60;1.00
2657;DHT22;1338;48.176;11.792;2022-11-20T08:53:41;5.60;1.00
2657;DHT22;1338;48.176;11.792;2022-11-20T08:56:09;5.60;1.00
2657;DHT22;1338;48.176;11.792;2022-11-20T08:58:38;5.60;1.00
2657;DHT22;1338;48.176;11.792;2022-11-20T09:01:28;5.60;1.00
2657;DHT22;1338;48.176;11.792;2022-11-20T09:03:57;5.70;1.00
2657;DHT22;1338;48.176;11.792;2022-11-20T09:06:26;5.70;1.00
2657;DHT22;1338;48.176;11.792;2022-11-20T09:08:54;5.80;1.00
2657;DHT22;1338;48.176;11.792;2022-11-20T09:11:29;5.80;1.00
2657;DHT22;1338;48.176;11.792;2022-11-20T09:13:57;5.80;1.00
2657;DHT22;1338;48.176;11.792;2022-11-20T09:16:25;5.80;1.00
2657;DHT22;1338;48.176;11.792;2022-11-20T09:18:55;5.80;1.00
2657;DHT22;1338;48.176;11.792;2022-11-20T09:21:43;5.80;1.00
2657;DHT22;1338;48.176;11.792;2022-11-20T09:24:11;5.90;1.00
2657;DHT22;1338;48.176;11.792;2022-11-20T09:26:39;5.80;1.00
2657;DHT22;1338;48.176;11.792;2022-11-20T09:29:07;5.90;1.00
2657;DHT22;1338;48.176;11.792;2022-11-20T09:31:36;6.10;1.00
2657;DHT22;1338;48.176;11.792;2022-11-20T09:34:05;6.00;1.00
2657;DHT22;1338;48.176;11.792;2022-11-20T09:36:33;6.00;1.00
2657;DHT22;1338;48.176;11.792;2022-11-20T09:39:02;6.00;1.00
2657;DHT22;1338;48.176;11.792;2022-11-20T09:41:41;6.00;1.00
2657;DHT22;1338;48.176;11.792;2022-11-20T09:44:24;6.10;1.00
2657;DHT22;1338;48.176;11.792;2022-11-20T09:47:02;6.40;1.00
2657;DHT22;1338;48.176;11.792;2022-11-20T09:49:46;6.30;1.00
2657;DHT22;1338;48.176;11.792;2022-11-20T09:52:25;6.30;1.00
2657;DHT22;1338;48.176;11.792;2022-11-20T09:55:01;6.30;1.00
2657;DHT22;1338;48.176;11.792;2022-11-20T09:57:34;6.40;1.00
2657;DHT22;1338;48.176;11.792;2022-11-20T10:00:05;6.50;1.00
2657;DHT22;1338;48.176;11.792;2022-11-20T10:02:44;6.50;1.00
2657;DHT22;1338;48.176;11.792;2022-11-20T10:05:19;6.50;1.00
2657;DHT22;1338;48.176;11.792;2022-11-20T10:07:53;6.60;1.00
2657;DHT22;1338;48.176;11.792;2022-11-20T10:10:31;6.60;1.00
2657;DHT22;1338;48.176;11.792;2022-11-20T10:13:24;6.60;1.00
2657;DHT22;1338;48.176;11.792;2022-11-20T10:16:03;6.70;1.00
2657;DHT22;1338;48.176;11.792;2022-11-20T10:18:48;6.70;1.00
2657;DHT22;1338;48.176;11.792;2022-11-20T10:21:29;6.70;1.00
2657;DHT22;1338;48.176;11.792;2022-11-20T10:24:26;6.80;1.00
2657;DHT22;1338;48.176;11.792;2022-11-20T10:27:05;6.90;1.00
2657;DHT22;1338;48.176;11.792;2022-11-20T10:29:36;7.10;1.00
2657;DHT22;1338;48.176;11.792;2022-11-20T10:32:11;7.10;1.00
2657;DHT22;1338;48.176;11.792;2022-11-20T10:34:48;7.10;1.00
2657;DHT22;1338;48.176;11.792;2022-11-20T10:37:23;7.10;1.00
2657;DHT22;1338;48.176;11.792;2022-11-20T10:39:56;7.10;1.00
2657;DHT22;1338;48.176;11.792;2022-11-20T10:42:29;7.10;1.00
2657;DHT22;1338;48.176;11.792;2022-11-20T10:45:06;7.20;1.00
2657;DHT22;1338;48.176;11.792;2022-11-20T10:47:39;7.20;1.00
2657;DHT22;1338;48.176;11.792;2022-11-20T10:50:11;7.30;1.00
2657;DHT22;1338;48.176;11.792;2022-11-20T10:52:58;7.40;1.00
2657;DHT22;1338;48.176;11.792;2022-11-20T10:55:33;7.60;1.00
2657;DHT22;1338;48.176;11.792;2022-11-20T10:58:11;7.70;1.00
2657;DHT22;1338;48.176;11.792;2022-11-20T11:00:41;7.80;1.00
2657;DHT22;1338;48.176;11.792;2022-11-20T11:03:22;7.70;1.00
2657;DHT22;1338;48.176;11.792;2022-11-20T11:05:56;7.80;1.00
2657;DHT22;1338;48.176;11.792;2022-11-20T11:08:33;7.80;1.00
2657;DHT22;1338;48.176;11.792;2022-11-20T11:11:09;7.50;1.00
2657;DHT22;1338;48.176;11.792;2022-11-20T11:13:43;7.40;1.00
2657;DHT22;1338;48.176;11.792;2022-11-20T11:16:20;7.20;1.00
2657;DHT22;1338;48.176;11.792;2022-11-20T11:18:48;7.30;1.00
2657;DHT22;1338;48.176;11.792;2022-11-20T11:21:24;7.40;1.00
2657;DHT22;1338;48.176;11.792;2022-11-20T11:24:01;7.40;1.00
2657;DHT22;1338;48.176;11.792;2022-11-20T11:26:56;7.40;1.00
2657;DHT22;1338;48.176;11.792;2022-11-20T11:29:25;7.40;1.00
2657;DHT22;1338;48.176;11.792;2022-11-20T11:32:04;7.30;1.00
2657;DHT22;1338;48.176;11.792;2022-11-20T11:34:33;7.50;1.00
2657;DHT22;1338;48.176;11.792;2022-11-20T11:37:02;7.50;1.00
2657;DHT22;1338;48.176;11.792;2022-11-20T11:39:33;7.50;1.00
2657;DHT22;1338;48.176;11.792;2022-11-20T11:42:01;7.50;1.00
2657;DHT22;1338;48.176;11.792;2022-11-20T11:44:32;7.40;1.00
2657;DHT22;1338;48.176;11.792;2022-11-20T11:47:22;7.60;1.00
2657;DHT22;1338;48.176;11.792;2022-11-20T11:50:01;7.60;1.00
2657;DHT22;1338;48.176;11.792;2022-11-20T11:52:31;7.60;1.00
2657;DHT22;1338;48.176;11.792;2022-11-20T11:55:07;7.60;1.00
2657;DHT22;1338;48.176;11.792;2022-11-20T11:57:45;7.50;1.00
2657;DHT22;1338;48.176;11.792;2022-11-20T12:00:16;7.40;1.00
2657;DHT22;1338;48.176;11.792;2022-11-20T12:02:53;7.40;1.00
2657;DHT22;1338;48.176;11.792;2022-11-20T12:05:27;7.40;1.00
2657;DHT22;1338;48.176;11.792;2022-11-20T12:07:59;7.50;1.00
2657;DHT22;1338;48.176;11.792;2022-11-20T12:10:43;7.50;1.00
2657;DHT22;1338;48.176;11.792;2022-11-20T12:13:20;7.60;1.00
2657;DHT22;1338;48.176;11.792;2022-11-20T12:15:49;7.60;1.00
2657;DHT22;1338;48.176;11.792;2022-11-20T12:18:20;7.50;1.00
2657;DHT22;1338;48.176;11.792;2022-11-20T12:20:58;7.50;1.00
2657;DHT22;1338;48.176;11.792;2022-11-20T12:23:35;7.40;1.00
2657;DHT22;1338;48.176;11.792;2022-11-20T12:26:13;7.30;1.00
2657;DHT22;1338;48.176;11.792;2022-11-20T12:28:53;7.20;1.00
2657;DHT22;1338;48.176;11.792;2022-11-20T12:31:48;7.00;1.00
2657;DHT22;1338;48.176;11.792;2022-11-20T12:34:28;6.40;1.00
2657;DHT22;1338;48.176;11.792;2022-11-20T12:37:02;6.00;1.00
2657;DHT22;1338;48.176;11.792;2022-11-20T12:39:40;5.90;1.00
2657;DHT22;1338;48.176;11.792;2022-11-20T12:45:46;6.00;1.00
2657;DHT22;1338;48.176;11.792;2022-11-20T12:48:41;6.30;1.00
2657;DHT22;1338;48.176;11.792;2022-11-20T12:54:41;6.50;1.00
2657;DHT22;1338;48.176;11.792;2022-11-20T12:57:18;6.50;1.00
2657;DHT22;1338;48.176;11.792;2022-11-20T13:00:01;6.50;1.00
2657;DHT22;1338;48.176;11.792;2022-11-20T13:02:35;6.50;1.00
2657;DHT22;1338;48.176;11.792;2022-11-20T13:05:18;6.30;1.00
2657;DHT22;1338;48.176;11.792;2022-11-20T13:07:48;6.30;1.00
2657;DHT22;1338;48.176;11.792;2022-11-20T13:10:23;6.30;1.00
2657;DHT22;1338;48.176;11.792;2022-11-20T13:12:59;6.30;1.00
2657;DHT22;1338;48.176;11.792;2022-11-20T13:15:40;6.40;1.00
2657;DHT22;1338;48.176;11.792;2022-11-20T13:18:13;6.30;1.00
2657;DHT22;1338;48.176;11.792;2022-11-20T13:20:42;6.30;1.00
2657;DHT22;1338;48.176;11.792;2022-11-20T13:23:11;6.20;1.00
2657;DHT22;1338;48.176;11.792;2022-11-20T13:25:39;6.20;1.00
2657;DHT22;1338;48.176;11.792;2022-11-20T13:28:27;6.20;1.00
2657;DHT22;1338;48.176;11.792;2022-11-20T13:30:57;6.20;1.00
2657;DHT22;1338;48.176;11.792;2022-11-20T13:33:30;6.20;1.00
2657;DHT22;1338;48.176;11.792;2022-11-20T13:36:00;6.10;1.00
2657;DHT22;1338;48.176;11.792;2022-11-20T13:38:41;6.00;1.00
2657;DHT22;1338;48.176;11.792;2022-11-20T13:41:10;6.10;1.00
2657;DHT22;1338;48.176;11.792;2022-11-20T13:44:05;6.00;1.00
2657;DHT22;1338;48.176;11.792;2022-11-20T13:46:37;5.90;1.00
2657;DHT22;1338;48.176;11.792;2022-11-20T13:49:10;5.90;1.00
2657;DHT22;1338;48.176;11.792;2022-11-20T13:51:43;6.00;1.00
2657;DHT22;1338;48.176;11.792;2022-11-20T13:54:32;5.90;1.00
2657;DHT22;1338;48.176;11.792;2022-11-20T13:57:18;5.90;1.00
2657;DHT22;1338;48.176;11.792;2022-11-20T13:59:57;5.90;1.00
2657;DHT22;1338;48.176;11.792;2022-11-20T14:02:29;6.00;1.00
2657;DHT22;1338;48.176;11.792;2022-11-20T14:04:58;6.00;1.00
2657;DHT22;1338;48.176;11.792;2022-11-20T14:07:32;6.00;1.00
2657;DHT22;1338;48.176;11.792;2022-11-20T14:10:03;6.00;1.00
2657;DHT22;1338;48.176;11.792;2022-11-20T14:12:33;6.00;1.00
2657;DHT22;1338;48.176;11.792;2022-11-20T14:15:05;6.10;1.00
2657;DHT22;1338;48.176;11.792;2022-11-20T14:17:35;6.10;1.00
2657;DHT22;1338;48.176;11.792;2022-11-20T14:20:06;6.10;1.00
2657;DHT22;1338;48.176;11.792;2022-11-20T14:22:48;6.10;1.00
2657;DHT22;1338;48.176;11.792;2022-11-20T14:25:22;6.00;1.00
2657;DHT22;1338;48.176;11.792;2022-11-20T14:27:55;6.00;1.00
2657;DHT22;1338;48.176;11.792;2022-11-20T14:30:28;6.10;1.00
2657;DHT22;1338;48.176;11.792;2022-11-20T14:33:01;6.20;1.00
2657;DHT22;1338;48.176;11.792;2022-11-20T14:35:31;6.10;1.00
2657;DHT22;1338;48.176;11.792;2022-11-20T14:38:02;6.10;1.00
2657;DHT22;1338;48.176;11.792;2022-11-20T14:40:32;6.00;1.00
2657;DHT22;1338;48.176;11.792;2022-11-20T14:43:15;6.20;1.00
2657;DHT22;1338;48.176;11.792;2022-11-20T14:45:52;6.10;1.00
2657;DHT22;1338;48.176;11.792;2022-11-20T14:48:28;6.10;1.00
2657;DHT22;1338;48.176;11.792;2022-11-20T14:50:57;6.20;1.00
2657;DHT22;1338;48.176;11.792;2022-11-20T14:53:26;6.20;1.00
2657;DHT22;1338;48.176;11.792;2022-11-20T14:55:56;6.20;1.00
2657;DHT22;1338;48.176;11.792;2022-11-20T14:58:26;6.20;1.00
2657;DHT22;1338;48.176;11.792;2022-11-20T15:00:58;6.30;1.00
2657;DHT22;1338;48.176;11.792;2022-11-20T15:03:33;6.20;1.00
2657;DHT22;1338;48.176;11.792;2022-11-20T15:06:02;6.10;1.00
2657;DHT22;1338;48.176;11.792;2022-11-20T15:08:31;6.10;1.00
2657;DHT22;1338;48.176;11.792;2022-11-20T15:10:59;6.10;1.00
2657;DHT22;1338;48.176;11.792;2022-11-20T15:13:30;6.10;1.00
2657;DHT22;1338;48.176;11.792;2022-11-20T15:16:01;6.20;1.00
2657;DHT22;1338;48.176;11.792;2022-11-20T15:18:32;6.20;1.00
2657;DHT22;1338;48.176;11.792;2022-11-20T15:21:10;6.00;1.00
2657;DHT22;1338;48.176;11.792;2022-11-20T15:23:38;6.10;1.00
2657;DHT22;1338;48.176;11.792;2022-11-20T15:26:07;6.10;1.00
2657;DHT22;1338;48.176;11.792;2022-11-20T15:28:41;6.00;1.00
2657;DHT22;1338;48.176;11.792;2022-11-20T15:31:13;6.00;1.00
2657;DHT22;1338;48.176;11.792;2022-11-20T15:33:42;6.00;1.00
2657;DHT22;1338;48.176;11.792;2022-11-20T15:36:10;5.90;1.00
2657;DHT22;1338;48.176;11.792;2022-11-20T15:38:39;5.90;1.00
2657;DHT22;1338;48.176;11.792;2022-11-20T15:41:08;6.00;1.00
2657;DHT22;1338;48.176;11.792;2022-11-20T15:43:37;5.90;1.00
2657;DHT22;1338;48.176;11.792;2022-11-20T15:46:08;5.90;1.00
2657;DHT22;1338;48.176;11.792;2022-11-20T15:48:39;5.80;1.00
2657;DHT22;1338;48.176;11.792;2022-11-20T15:51:21;5.90;1.00
2657;DHT22;1338;48.176;11.792;2022-11-20T15:53:49;5.80;1.00
2657;DHT22;1338;48.176;11.792;2022-11-20T15:56:17;5.80;1.00
2657;DHT22;1338;48.176;11.792;2022-11-20T15:58:45;5.70;1.00
2657;DHT22;1338;48.176;11.792;2022-11-20T16:01:16;5.70;1.00
2657;DHT22;1338;48.176;11.792;2022-11-20T16:03:46;5.80;1.00
2657;DHT22;1338;48.176;11.792;2022-11-20T16:06:14;5.80;1.00
2657;DHT22;1338;48.176;11.792;2022-11-20T16:08:43;5.60;1.00
2657;DHT22;1338;48.176;11.792;2022-11-20T16:11:12;5.30;1.00
2657;DHT22;1338;48.176;11.792;2022-11-20T16:13:41;5.20;1.00
2657;DHT22;1338;48.176;11.792;2022-11-20T16:16:31;5.20;1.00
2657;DHT22;1338;48.176;11.792;2022-11-20T16:19:01;5.40;1.00
2657;DHT22;1338;48.176;11.792;2022-11-20T16:21:29;5.30;1.00
2657;DHT22;1338;48.176;11.792;2022-11-20T16:23:59;5.20;1.00
2657;DHT22;1338;48.176;11.792;2022-11-20T16:26:28;5.00;1.00
2657;DHT22;1338;48.176;11.792;2022-11-20T16:28:57;4.90;1.00
2657;DHT22;1338;48.176;11.792;2022-11-20T16:31:26;4.90;1.00
2657;DHT22;1338;48.176;11.792;2022-11-20T16:33:55;4.70;1.00
2657;DHT22;1338;48.176;11.792;2022-11-20T16:36:27;4.70;1.00
2657;DHT22;1338;48.176;11.792;2022-11-20T16:38:57;4.50;1.00
2657;DHT22;1338;48.176;11.792;2022-11-20T16:41:27;4.40;1.00
2657;DHT22;1338;48.176;11.792;2022-11-20T16:43:56;4.30;1.00
2657;DHT22;1338;48.176;11.792;2022-11-20T16:46:27;4.30;1.00
2657;DHT22;1338;48.176;11.792;2022-11-20T16:48:56;4.20;1.00
2657;DHT22;1338;48.176;11.792;2022-11-20T16:51:27;4.00;1.00
2657;DHT22;1338;48.176;11.792;2022-11-20T16:53:56;4.00;1.00